createdAt,value
2022-10-01T00:01:37.544Z,95665.13
2022-10-01T00:03:38.334Z,95667.94
2022-10-01T00:05:36.607Z,95665.69
2022-10-01T00:07:39.492Z,95666.13
2022-10-01T00:09:37.560Z,95679.25
2022-10-01T00:11:36.056Z,95667.69
2022-10-01T00:13:35.026Z,95664.47
2022-10-01T00:15:33.676Z,95674.22
2022-10-01T00:17:31.961Z,95673.25
2022-10-01T00:19:31.427Z,95655.97
2022-10-01T00:21:32.062Z,95658.63
2022-10-01T00:23:30.570Z,95668.09
2022-10-01T00:25:28.732Z,95659.59
2022-10-01T00:27:27.089Z,95657.38
2022-10-01T00:29:25.327Z,95659.47
2022-10-01T00:31:23.740Z,95663.22
2022-10-01T00:33:22.006Z,95659.03
2022-10-01T00:35:22.445Z,95649.72
2022-10-01T00:37:22.366Z,95658.53
2022-10-01T00:39:20.477Z,95655.03
2022-10-01T00:41:19.758Z,95653.22
2022-10-01T00:43:21.393Z,95652.53
2022-10-01T00:45:19.694Z,95653.50
2022-10-01T00:47:26.148Z,95660.03
2022-10-01T00:49:29.192Z,95652.91
2022-10-01T00:51:34.176Z,95653.34
2022-10-01T00:53:32.683Z,95653.91
2022-10-01T00:55:36.277Z,95654.19
2022-10-01T00:57:35.930Z,95647.63
2022-10-01T00:59:36.738Z,95654.34
2022-10-01T01:01:39.007Z,95652.09
2022-10-01T01:03:37.297Z,95663.22
2022-10-01T01:05:35.589Z,95669.50
2022-10-01T01:07:36.357Z,95657.66
2022-10-01T01:09:37.460Z,95646.53
2022-10-01T01:11:43.020Z,95651.00
2022-10-01T01:13:48.570Z,95645.16
2022-10-01T01:15:55.477Z,95647.09
2022-10-01T01:17:59.048Z,95630.81
2022-10-01T01:20:23.005Z,95650.44
2022-10-01T01:22:24.530Z,95642.94
2022-10-01T01:24:42.072Z,95622.88
2022-10-01T01:26:56.165Z,95648.50
2022-10-01T01:29:00.595Z,95649.03
2022-10-01T01:31:04.117Z,95653.75
2022-10-01T01:33:07.176Z,95629.84
2022-10-01T01:35:09.439Z,95630.66
2022-10-01T01:37:12.203Z,95649.03
2022-10-01T01:39:12.959Z,95649.59
2022-10-01T01:41:13.959Z,95640.53
2022-10-01T01:43:20.617Z,95650.56
2022-10-01T01:45:24.244Z,95664.09
2022-10-01T01:47:24.552Z,95639.03
2022-10-01T01:49:23.109Z,95637.66
2022-10-01T01:51:27.183Z,95663.81
2022-10-01T01:53:26.283Z,95648.50
2022-10-01T01:55:26.407Z,95645.13
2022-10-01T01:57:24.721Z,95645.69
2022-10-01T01:59:23.192Z,95645.84
2022-10-01T02:01:40.316Z,95655.44
2022-10-01T02:03:38.523Z,95649.03
2022-10-01T02:05:44.491Z,95661.56
2022-10-01T02:08:15.854Z,95670.19
2022-10-01T02:10:28.658Z,95664.59
2022-10-01T02:12:37.254Z,95665.59
2022-10-01T02:14:45.158Z,95681.31
2022-10-01T02:16:50.424Z,95662.66
2022-10-01T02:18:54.105Z,95663.22
2022-10-01T02:20:57.771Z,95665.19
2022-10-01T02:23:00.381Z,95665.19
2022-10-01T02:25:01.064Z,95665.59
2022-10-01T02:27:03.474Z,95673.66
2022-10-01T02:29:09.246Z,95677.00
2022-10-01T02:31:09.315Z,95681.44
2022-10-01T02:33:11.009Z,95658.78
2022-10-01T02:35:12.729Z,95681.84
2022-10-01T02:37:12.805Z,95695.22
2022-10-01T02:39:12.742Z,95674.06
2022-10-01T02:41:13.711Z,95679.91
2022-10-01T02:43:16.882Z,95694.38
2022-10-01T02:45:19.596Z,95690.63
2022-10-01T02:47:22.554Z,95693.28
2022-10-01T02:49:22.300Z,95702.47
2022-10-01T02:51:30.199Z,95691.88
2022-10-01T02:53:35.984Z,95696.22
2022-10-01T02:55:39.235Z,95697.44
2022-10-01T02:57:36.942Z,95691.34
2022-10-01T02:59:35.207Z,95703.56
2022-10-01T03:01:33.608Z,95704.41
2022-10-01T03:03:32.637Z,95693.00
2022-10-01T03:05:32.349Z,95682.28
2022-10-01T03:07:32.299Z,95690.63
2022-10-01T03:09:30.507Z,95696.91
2022-10-01T03:11:28.779Z,95674.91
2022-10-01T03:13:27.584Z,95677.44
2022-10-01T03:15:25.802Z,95692.72
2022-10-01T03:17:24.203Z,95681.03
2022-10-01T03:19:22.795Z,95689.38
2022-10-01T03:21:22.470Z,95715.25
2022-10-01T03:23:20.643Z,95709.28
2022-10-01T03:25:18.867Z,95692.03
2022-10-01T03:27:17.732Z,95699.69
2022-10-01T03:29:16.070Z,95707.88
2022-10-01T03:31:14.315Z,95711.34
2022-10-01T03:33:12.466Z,95708.31
2022-10-01T03:35:11.103Z,95727.09
2022-10-01T03:37:10.982Z,95716.09
2022-10-01T03:39:09.262Z,95706.50
2022-10-01T03:41:07.694Z,95701.66
2022-10-01T03:43:05.916Z,95700.38
2022-10-01T03:45:04.408Z,95708.19
2022-10-01T03:47:02.577Z,95698.84
2022-10-01T03:49:00.959Z,95699.41
2022-10-01T03:51:00.718Z,95705.78
2022-10-01T03:53:00.293Z,95692.59
2022-10-01T03:54:58.495Z,95691.16
2022-10-01T03:56:56.743Z,95681.44
2022-10-01T03:58:54.878Z,95668.78
2022-10-01T04:00:55.319Z,95684.34
2022-10-01T04:02:53.547Z,95697.41
2022-10-01T04:04:51.782Z,95677.38
2022-10-01T04:06:50.125Z,95641.22
2022-10-01T04:08:51.160Z,95669.13
2022-10-01T04:10:49.546Z,95661.75
2022-10-01T04:12:47.983Z,95630.06
2022-10-01T04:14:46.072Z,95656.06
2022-10-01T04:16:44.306Z,95691.66
2022-10-01T04:18:42.610Z,95677.78
2022-10-01T04:20:40.654Z,95691.81
2022-10-01T04:22:42.172Z,95707.63
2022-10-01T04:24:41.758Z,95693.75
2022-10-01T04:26:40.059Z,95698.19
2022-10-01T04:28:38.132Z,95697.94
2022-10-01T04:30:37.955Z,95684.56
2022-10-01T04:32:36.684Z,95682.22
2022-10-01T04:34:48.745Z,95665.13
2022-10-01T04:36:47.056Z,95665.28
2022-10-01T04:38:45.220Z,95660.28
2022-10-01T04:40:45.044Z,95651.38
2022-10-01T04:42:44.729Z,95657.13
2022-10-01T04:44:43.023Z,95665.44
2022-10-01T04:46:41.245Z,95668.50
2022-10-01T04:48:39.550Z,95680.47
2022-10-01T04:50:37.777Z,95685.91
2022-10-01T04:52:36.055Z,95690.38
2022-10-01T04:54:34.232Z,95704.72
2022-10-01T04:56:33.783Z,95712.25
2022-10-01T04:58:32.162Z,95691.78
2022-10-01T05:00:31.557Z,95703.22
2022-10-01T05:02:30.333Z,95697.13
2022-10-01T05:04:28.652Z,95694.00
2022-10-01T05:06:26.787Z,95711.00
2022-10-01T05:08:25.005Z,95716.28
2022-10-01T05:10:25.076Z,95710.81
2022-10-01T05:12:25.509Z,95730.56
2022-10-01T05:14:24.715Z,95735.47
2022-10-01T05:16:23.514Z,95728.38
2022-10-01T05:18:23.754Z,95732.84
2022-10-01T05:20:24.061Z,95718.91
2022-10-01T05:22:22.707Z,95733.13
2022-10-01T05:24:20.994Z,95720.22
2022-10-01T05:26:19.152Z,95711.72
2022-10-01T05:28:22.637Z,95723.41
2022-10-01T05:30:24.405Z,95729.69
2022-10-01T05:32:22.746Z,95713.69
2022-10-01T05:34:20.928Z,95723.94
2022-10-01T05:36:19.220Z,95727.78
2022-10-01T05:38:17.430Z,95722.28
2022-10-01T05:40:15.775Z,95736.91
2022-10-01T05:42:14.209Z,95742.03
2022-10-01T05:44:13.693Z,95717.94
2022-10-01T05:46:12.315Z,95717.78
2022-10-01T05:48:11.021Z,95713.44
2022-10-01T05:50:10.696Z,95687.56
2022-10-01T05:52:10.893Z,95705.06
2022-10-01T05:54:12.228Z,95694.53
2022-10-01T05:56:11.538Z,95688.34
2022-10-01T05:58:11.818Z,95688.78
2022-10-01T06:00:14.730Z,95706.81
2022-10-01T06:02:13.090Z,95702.38
2022-10-01T06:04:11.520Z,95696.06
2022-10-01T06:06:09.804Z,95715.03
2022-10-01T06:08:09.664Z,95727.81
2022-10-01T06:10:09.355Z,95744.56
2022-10-01T06:12:10.701Z,95743.97
2022-10-01T06:14:11.979Z,95756.13
2022-10-01T06:16:11.845Z,95747.00
2022-10-01T06:18:11.228Z,95754.00
2022-10-01T06:20:12.014Z,95761.47
2022-10-01T06:22:10.411Z,95759.16
2022-10-01T06:24:08.834Z,95753.81
2022-10-01T06:26:08.299Z,95755.34
2022-10-01T06:28:08.756Z,95768.63
2022-10-01T06:30:08.369Z,95762.66
2022-10-01T06:32:12.966Z,95756.34
2022-10-01T06:34:11.179Z,95774.28
2022-10-01T06:36:09.358Z,95759.31
2022-10-01T06:38:09.739Z,95762.34
2022-10-01T06:40:09.110Z,95754.69
2022-10-01T06:42:07.361Z,95748.97
2022-10-01T06:44:05.657Z,95753.56
2022-10-01T06:46:05.154Z,95748.50
2022-10-01T06:48:08.245Z,95724.44
2022-10-01T06:50:07.654Z,95716.13
2022-10-01T06:52:23.135Z,95724.16
2022-10-01T06:54:21.867Z,95734.47
2022-10-01T06:56:20.167Z,95741.25
2022-10-01T06:58:20.355Z,95749.16
2022-10-01T07:00:21.827Z,95733.94
2022-10-01T07:02:29.035Z,95729.34
2022-10-01T07:04:28.791Z,95720.16
2022-10-01T07:06:27.224Z,95731.16
2022-10-01T07:08:25.413Z,95728.81
2022-10-01T07:10:24.387Z,95740.28
2022-10-01T07:12:23.118Z,95761.28
2022-10-01T07:14:21.620Z,95767.53
2022-10-01T07:16:20.662Z,95771.13
2022-10-01T07:18:18.886Z,95768.00
2022-10-01T07:20:19.374Z,95780.44
2022-10-01T07:22:20.457Z,95777.09
2022-10-01T07:24:18.862Z,95761.06
2022-10-01T07:26:17.498Z,95754.56
2022-10-01T07:28:18.440Z,95745.97
2022-10-01T07:30:17.415Z,95741.25
2022-10-01T07:32:16.186Z,95740.22
2022-10-01T07:34:14.868Z,95733.03
2022-10-01T07:36:14.771Z,95733.81
2022-10-01T07:38:12.960Z,95720.41
2022-10-01T07:40:11.513Z,95719.72
2022-10-01T07:42:09.779Z,95716.47
2022-10-01T07:44:08.158Z,95721.63
2022-10-01T07:46:07.305Z,95722.72
2022-10-01T07:48:05.992Z,95731.53
2022-10-01T07:50:07.273Z,95725.88
2022-10-01T07:52:12.335Z,95721.84
2022-10-01T07:54:11.614Z,95724.19
2022-10-01T07:56:09.894Z,95727.22
2022-10-01T07:58:08.183Z,95735.03
2022-10-01T08:00:08.280Z,95743.84
2022-10-01T08:02:14.921Z,95745.59
2022-10-01T08:04:30.443Z,95741.75
2022-10-01T08:06:28.654Z,95725.78
2022-10-01T08:08:28.260Z,95718.63
2022-10-01T08:10:27.005Z,95713.75
2022-10-01T08:12:28.897Z,95708.31
2022-10-01T08:14:28.449Z,95703.81
2022-10-01T08:16:29.176Z,95693.56
2022-10-01T08:18:27.568Z,95673.44
2022-10-01T08:20:25.712Z,95697.97
2022-10-01T08:22:24.124Z,95697.41
2022-10-01T08:24:23.626Z,95669.47
2022-10-01T08:26:22.306Z,95670.00
2022-10-01T08:28:21.069Z,95686.03
2022-10-01T08:30:19.578Z,95698.22
2022-10-01T08:32:18.222Z,95696.28
2022-10-01T08:34:17.015Z,95706.13
2022-10-01T08:36:17.118Z,95703.72
2022-10-01T08:38:16.237Z,95691.72
2022-10-01T08:40:16.802Z,95686.00
2022-10-01T08:42:27.556Z,95700.00
2022-10-01T08:44:32.369Z,95685.75
2022-10-01T08:46:36.420Z,95662.78
2022-10-01T08:48:40.420Z,95658.72
2022-10-01T08:50:48.380Z,95660.88
2022-10-01T08:52:53.877Z,95678.63
2022-10-01T08:54:58.004Z,95677.09
2022-10-01T08:57:01.295Z,95682.97
2022-10-01T08:59:02.187Z,95679.38
2022-10-01T09:01:00.605Z,95700.59
2022-10-01T09:03:02.160Z,95704.75
2022-10-01T09:05:04.096Z,95701.50
2022-10-01T09:07:12.615Z,95702.00
2022-10-01T09:09:29.626Z,95705.34
2022-10-01T09:11:47.375Z,95705.69
2022-10-01T09:14:03.877Z,95722.31
2022-10-01T09:16:10.453Z,95737.72
2022-10-01T09:18:19.531Z,95770.31
2022-10-01T09:20:25.265Z,95788.03
2022-10-01T09:22:35.807Z,95776.84
2022-10-01T09:24:44.958Z,95774.00
2022-10-01T09:26:48.231Z,95776.88
2022-10-01T09:28:52.986Z,95792.88
2022-10-01T09:30:57.450Z,95785.84
2022-10-01T09:33:01.171Z,95782.16
2022-10-01T09:35:04.719Z,95799.53
2022-10-01T09:37:14.854Z,95784.53
2022-10-01T09:39:20.033Z,95790.84
2022-10-01T09:41:18.530Z,95792.88
2022-10-01T09:43:19.934Z,95794.88
2022-10-01T09:45:26.564Z,95784.56
2022-10-01T09:47:26.749Z,95771.53
2022-10-01T09:49:31.634Z,95764.50
2022-10-01T09:51:40.010Z,95745.66
2022-10-01T09:53:44.935Z,95730.84
2022-10-01T09:55:47.094Z,95726.75
2022-10-01T09:57:49.722Z,95713.91
2022-10-01T09:59:54.350Z,95715.94
2022-10-01T10:01:59.165Z,95725.59
2022-10-01T10:03:59.070Z,95745.47
2022-10-01T10:05:59.907Z,95732.97
2022-10-01T10:08:01.910Z,95718.47
2022-10-01T10:10:09.890Z,95739.81
2022-10-01T10:12:11.177Z,95718.66
2022-10-01T10:14:20.037Z,95715.16
2022-10-01T10:16:26.618Z,95698.06
2022-10-01T10:18:30.849Z,95688.75
2022-10-01T10:20:31.105Z,95723.44
2022-10-01T10:22:30.600Z,95706.44
2022-10-01T10:24:34.191Z,95722.94
2022-10-01T10:26:34.959Z,95712.94
2022-10-01T10:28:44.231Z,95702.59
2022-10-01T10:30:44.307Z,95715.13
2022-10-01T10:32:44.388Z,95713.97
2022-10-01T10:34:47.538Z,95719.94
2022-10-01T10:36:47.367Z,95729.91
2022-10-01T10:38:49.658Z,95738.78
2022-10-01T10:40:48.069Z,95721.28
2022-10-01T10:42:50.882Z,95734.41
2022-10-01T10:44:50.912Z,95744.59
2022-10-01T10:46:50.515Z,95697.47
2022-10-01T10:48:58.750Z,95695.97
2022-10-01T10:51:03.402Z,95711.47
2022-10-01T10:53:12.527Z,95694.47
2022-10-01T10:55:23.492Z,95697.47
2022-10-01T10:57:28.000Z,95677.47
2022-10-01T10:59:26.323Z,95671.59
2022-10-01T11:01:29.474Z,95689.97
2022-10-01T11:03:30.144Z,95677.28
2022-10-01T11:05:32.114Z,95666.75
2022-10-01T11:07:33.466Z,95658.06
2022-10-01T11:09:44.386Z,95678.09
2022-10-01T11:11:52.754Z,95670.28
2022-10-01T11:14:09.608Z,95674.59
2022-10-01T11:16:27.319Z,95655.41
2022-10-01T11:18:50.587Z,95649.41
2022-10-01T11:21:00.806Z,95634.56
2022-10-01T11:23:15.912Z,95628.88
2022-10-01T11:25:30.763Z,95611.81
2022-10-01T11:27:40.937Z,95610.41
2022-10-01T11:29:53.083Z,95622.44
2022-10-01T11:32:02.817Z,95636.09
2022-10-01T11:34:22.340Z,95625.78
2022-10-01T11:36:26.615Z,95619.84
2022-10-01T11:38:44.359Z,95594.59
2022-10-01T11:40:44.637Z,95579.13
2022-10-01T11:42:45.416Z,95574.00
2022-10-01T11:44:47.998Z,95584.53
2022-10-01T11:46:54.576Z,95560.00
2022-10-01T11:48:58.457Z,95542.91
2022-10-01T11:51:01.405Z,95552.81
2022-10-01T11:53:05.449Z,95546.94
2022-10-01T11:55:29.417Z,95534.84
2022-10-01T11:57:46.036Z,95536.72
2022-10-01T11:59:50.205Z,95532.44
2022-10-01T12:01:53.328Z,95536.16
2022-10-01T12:04:06.264Z,95546.72
2022-10-01T12:06:09.489Z,95536.59
2022-10-01T12:08:14.877Z,95539.78
2022-10-01T12:10:29.644Z,95527.28
2022-10-01T12:12:33.500Z,95534.75
2022-10-01T12:14:39.337Z,95543.78
2022-10-01T12:16:45.226Z,95538.34
2022-10-01T12:18:52.209Z,95528.66
2022-10-01T12:20:53.723Z,95538.69
2022-10-01T12:22:53.214Z,95547.66
2022-10-01T12:24:51.772Z,95545.44
2022-10-01T12:27:01.650Z,95555.19
2022-10-01T12:29:07.629Z,95556.75
2022-10-01T12:31:12.614Z,95543.94
2022-10-01T12:33:38.172Z,95519.91
2022-10-01T12:35:52.128Z,95510.88
2022-10-01T12:38:04.510Z,95525.81
2022-10-01T12:40:17.903Z,95531.41
2022-10-01T12:42:33.217Z,95540.28
2022-10-01T12:44:53.633Z,95536.94
2022-10-01T12:47:05.776Z,95533.00
2022-10-01T12:49:11.964Z,95549.34
2022-10-01T12:51:33.585Z,95568.19
2022-10-01T12:53:40.417Z,95571.44
2022-10-01T12:56:09.148Z,95567.16
2022-10-01T12:58:20.875Z,95492.78
2022-10-01T13:00:22.530Z,95502.88
2022-10-01T13:02:39.472Z,95484.63
2022-10-01T13:04:50.086Z,95399.88
2022-10-01T13:07:06.111Z,95266.00
2022-10-01T13:09:13.956Z,95381.38
2022-10-01T13:11:26.503Z,95422.59
2022-10-01T13:13:33.667Z,95411.78
2022-10-01T13:15:37.863Z,95410.63
2022-10-01T13:17:46.208Z,95410.56
2022-10-01T13:19:53.433Z,95406.19
2022-10-01T13:21:58.894Z,95401.59
2022-10-01T13:24:05.495Z,95407.69
2022-10-01T13:26:10.595Z,95414.97
2022-10-01T13:28:18.009Z,95410.19
2022-10-01T13:30:20.142Z,95412.41
2022-10-01T13:32:34.730Z,95419.72
2022-10-01T13:34:39.415Z,95420.66
2022-10-01T13:36:38.118Z,95430.25
2022-10-01T13:38:43.958Z,95437.69
2022-10-01T13:40:42.487Z,95445.16
2022-10-01T13:42:45.954Z,95452.00
2022-10-01T13:44:44.229Z,95460.81
2022-10-01T13:46:53.732Z,95448.03
2022-10-01T13:48:52.565Z,95439.13
2022-10-01T13:51:04.206Z,95435.47
2022-10-01T13:53:15.367Z,95428.38
2022-10-01T13:55:26.953Z,95425.28
2022-10-01T13:57:32.427Z,95410.75
2022-10-01T13:59:34.591Z,95413.16
2022-10-01T14:01:41.323Z,95409.84
2022-10-01T14:03:50.776Z,95408.28
2022-10-01T14:05:57.336Z,95397.06
2022-10-01T14:08:00.124Z,95384.72
2022-10-01T14:10:00.439Z,95374.03
2022-10-01T14:12:23.274Z,95374.59
2022-10-01T14:14:42.845Z,95359.78
2022-10-01T14:16:43.904Z,95352.88
2022-10-01T14:18:48.934Z,95335.22
2022-10-01T14:20:56.011Z,95352.16
2022-10-01T14:23:10.292Z,95342.03
2022-10-01T14:25:22.948Z,95348.00
2022-10-01T14:27:27.937Z,95329.50
2022-10-01T14:29:44.074Z,95324.09
2022-10-01T14:31:55.065Z,95317.25
2022-10-01T14:34:21.977Z,95304.91
2022-10-01T14:36:23.987Z,95302.63
2022-10-01T14:38:23.320Z,95310.53
2022-10-01T14:40:24.365Z,95304.75
2022-10-01T14:42:22.653Z,95305.28
2022-10-01T14:44:26.750Z,95304.91
2022-10-01T14:46:24.786Z,95299.22
2022-10-01T14:48:24.167Z,95296.72
2022-10-01T14:50:23.930Z,95291.38
2022-10-01T14:52:25.624Z,95277.19
2022-10-01T14:54:24.809Z,95274.97
2022-10-01T14:56:23.683Z,95273.91
2022-10-01T14:58:27.633Z,95266.44
2022-10-01T15:00:29.641Z,95266.19
2022-10-01T15:02:29.069Z,95261.41
2022-10-01T15:04:27.391Z,95267.22
2022-10-01T15:06:30.099Z,95265.81
2022-10-01T15:08:39.381Z,95263.53
2022-10-01T15:10:37.739Z,95269.22
2022-10-01T15:12:41.130Z,95273.94
2022-10-01T15:14:39.481Z,95264.38
2022-10-01T15:16:38.806Z,95259.88
2022-10-01T15:18:38.733Z,95254.34
2022-10-01T15:20:36.918Z,95255.56
2022-10-01T15:22:36.452Z,95263.59
2022-10-01T15:24:39.753Z,95261.78
2022-10-01T15:26:38.041Z,95258.13
2022-10-01T15:28:37.319Z,95261.78
2022-10-01T15:30:37.490Z,95266.75
2022-10-01T15:32:35.679Z,95263.53
2022-10-01T15:34:38.828Z,95258.84
2022-10-01T15:36:37.597Z,95254.53
2022-10-01T15:38:37.934Z,95248.28
2022-10-01T15:40:37.590Z,95253.06
2022-10-01T15:42:37.439Z,95249.25
2022-10-01T15:44:47.103Z,95252.84
2022-10-01T15:46:45.330Z,95245.16
2022-10-01T15:48:43.515Z,95245.69
2022-10-01T15:50:42.080Z,95245.22
2022-10-01T15:52:50.593Z,95241.84
2022-10-01T15:55:00.011Z,95242.50
2022-10-01T15:56:59.227Z,95230.44
2022-10-01T15:59:00.638Z,95237.22
2022-10-01T16:01:03.525Z,95237.50
2022-10-01T16:03:01.972Z,95231.13
2022-10-01T16:05:06.237Z,95233.25
2022-10-01T16:07:05.371Z,95224.69
2022-10-01T16:09:06.916Z,95213.19
2022-10-01T16:11:20.284Z,95205.41
2022-10-01T16:13:31.240Z,95197.97
2022-10-01T16:15:30.886Z,95184.19
2022-10-01T16:17:31.907Z,95189.84
2022-10-01T16:19:31.787Z,95176.91
2022-10-01T16:21:30.108Z,95174.63
2022-10-01T16:23:35.758Z,95172.47
2022-10-01T16:25:45.505Z,95166.88
2022-10-01T16:27:48.546Z,95157.41
2022-10-01T16:29:53.710Z,95152.91
2022-10-01T16:31:52.517Z,95149.44
2022-10-01T16:33:50.777Z,95148.13
2022-10-01T16:35:49.623Z,95139.22
2022-10-01T16:37:50.218Z,95132.34
2022-10-01T16:39:48.554Z,95133.19
2022-10-01T16:42:06.338Z,95138.94
2022-10-01T16:44:11.777Z,95128.63
2022-10-01T16:46:10.183Z,95119.38
2022-10-01T16:48:15.767Z,95117.41
2022-10-01T16:50:17.399Z,95100.19
2022-10-01T16:52:16.876Z,95092.44
2022-10-01T16:54:23.579Z,95093.28
2022-10-01T16:56:26.893Z,95091.69
2022-10-01T16:58:25.698Z,95085.22
2022-10-01T17:00:28.075Z,95092.25
2022-10-01T17:02:26.998Z,95082.59
2022-10-01T17:04:30.356Z,95074.59
2022-10-01T17:06:31.076Z,95060.59
2022-10-01T17:08:29.278Z,95057.22
2022-10-01T17:10:28.321Z,95054.22
2022-10-01T17:12:27.065Z,95046.50
2022-10-01T17:14:25.880Z,95043.50
2022-10-01T17:16:25.840Z,95050.00
2022-10-01T17:18:24.222Z,95050.00
2022-10-01T17:20:23.195Z,95048.94
2022-10-01T17:22:21.634Z,95044.59
2022-10-01T17:24:19.938Z,95051.03
2022-10-01T17:26:18.289Z,95039.03
2022-10-01T17:28:18.911Z,95051.50
2022-10-01T17:30:17.816Z,95037.28
2022-10-01T17:32:19.202Z,95049.50
2022-10-01T17:34:19.717Z,95053.44
2022-10-01T17:36:18.019Z,95055.91
2022-10-01T17:38:16.248Z,95057.94
2022-10-01T17:40:14.612Z,95064.34
2022-10-01T17:42:15.197Z,95077.38
2022-10-01T17:44:13.598Z,95078.91
2022-10-01T17:46:11.917Z,95078.44
2022-10-01T17:48:12.045Z,95070.72
2022-10-01T17:50:10.565Z,95057.03
2022-10-01T17:52:08.784Z,95060.16
2022-10-01T17:54:07.054Z,95056.72
2022-10-01T17:56:07.226Z,95037.38
2022-10-01T17:58:06.753Z,95035.81
2022-10-01T18:00:06.336Z,95038.56
2022-10-01T18:02:36.705Z,95024.88
2022-10-01T18:04:33.270Z,95024.69
2022-10-01T18:06:31.646Z,95023.84
2022-10-01T18:08:51.174Z,95015.78
2022-10-01T18:10:48.323Z,95023.41
2022-10-01T18:12:46.651Z,95032.03
2022-10-01T18:14:45.091Z,95019.72
2022-10-01T18:16:43.366Z,95031.25
2022-10-01T18:21:04.682Z,95021.91
2022-10-01T18:23:03.193Z,95033.56
2022-10-01T18:25:03.543Z,95042.81
2022-10-01T18:27:02.102Z,95046.38
2022-10-01T18:29:00.211Z,95028.22
2022-10-01T18:31:18.821Z,95036.09
2022-10-01T18:33:17.064Z,95028.03
2022-10-01T18:35:21.723Z,95024.53
2022-10-01T18:37:34.891Z,95024.63
2022-10-01T18:39:40.915Z,95025.78
2022-10-01T18:41:41.060Z,95014.38
2022-10-01T18:43:42.395Z,95002.78
2022-10-01T18:45:56.649Z,94997.22
2022-10-01T18:48:10.073Z,94998.22
2022-10-01T18:50:19.753Z,94985.44
2022-10-01T18:52:28.788Z,94974.53
2022-10-01T18:54:55.658Z,94984.50
2022-10-01T18:57:03.769Z,94964.91
2022-10-01T18:59:25.943Z,94942.72
2022-10-01T19:01:36.462Z,94937.41
2022-10-01T19:04:00.204Z,94919.38
2022-10-01T19:06:30.908Z,94919.44
2022-10-01T19:08:49.473Z,94914.09
2022-10-01T19:13:11.922Z,94929.53
2022-10-01T19:15:20.898Z,94933.22
2022-10-01T19:17:33.381Z,94922.25
2022-10-01T19:19:45.214Z,94910.13
2022-10-01T19:21:51.297Z,94921.44
2022-10-01T19:24:41.586Z,94923.53
2022-10-01T19:26:44.715Z,94903.31
2022-10-01T19:28:56.892Z,94921.25
2022-10-01T19:31:04.452Z,94935.38
2022-10-01T19:33:06.277Z,94965.91
2022-10-01T19:35:15.795Z,94998.50
2022-10-01T19:37:30.864Z,95077.28
2022-10-01T19:39:34.453Z,95138.75
2022-10-01T19:41:39.415Z,95179.59
2022-10-01T19:43:41.382Z,95207.09
2022-10-01T19:45:51.216Z,95153.94
2022-10-01T19:47:56.041Z,95133.53
2022-10-01T19:49:58.339Z,95109.31
2022-10-01T19:51:58.954Z,95065.94
2022-10-01T19:54:01.281Z,95051.44
2022-10-01T19:56:01.620Z,95057.28
2022-10-01T19:57:59.861Z,95034.72
2022-10-01T20:00:03.530Z,95017.81
2022-10-01T20:02:06.401Z,95021.00
2022-10-01T20:04:18.421Z,95035.69
2022-10-01T20:06:26.250Z,95024.31
2022-10-01T20:08:35.200Z,95019.63
2022-10-01T20:10:39.764Z,95023.56
2022-10-01T20:12:48.273Z,95026.41
2022-10-01T20:15:10.003Z,95007.69
2022-10-01T20:17:20.239Z,94999.84
2022-10-01T20:19:26.722Z,94990.19
2022-10-01T20:21:38.872Z,94983.38
2022-10-01T20:23:44.177Z,94985.09
2022-10-01T20:25:50.504Z,94974.34
2022-10-01T20:28:00.667Z,94963.56
2022-10-01T20:30:05.756Z,94959.00
2022-10-01T20:32:13.937Z,94965.25
2022-10-01T20:34:23.254Z,94965.25
2022-10-01T20:36:27.859Z,94968.59
2022-10-01T20:38:32.100Z,94985.84
2022-10-01T20:40:32.882Z,95002.66
2022-10-01T20:42:38.097Z,95014.63
2022-10-01T20:44:39.481Z,95040.34
2022-10-01T20:46:43.379Z,95034.31
2022-10-01T20:48:46.431Z,95020.91
2022-10-01T20:50:51.107Z,95028.38
2022-10-01T20:52:56.898Z,94996.66
2022-10-01T20:55:03.694Z,94955.66
2022-10-01T20:57:09.841Z,94899.75
2022-10-01T20:59:13.802Z,94875.19
2022-10-01T21:01:17.305Z,94862.09
2022-10-01T21:03:31.962Z,94860.06
2022-10-01T21:05:31.515Z,94856.59
2022-10-01T21:07:37.226Z,94906.38
2022-10-01T21:09:41.079Z,94924.16
2022-10-01T21:11:46.895Z,94911.34
2022-10-01T21:13:53.256Z,94937.75
2022-10-01T21:16:03.471Z,94957.03
2022-10-01T21:18:09.174Z,94967.31
2022-10-01T21:20:27.118Z,94950.50
2022-10-01T21:22:43.045Z,94961.13
2022-10-01T21:24:53.446Z,94984.06
2022-10-01T21:27:04.497Z,94906.03
2022-10-01T21:29:35.345Z,94899.28
2022-10-01T21:31:46.206Z,94882.97
2022-10-01T21:33:52.121Z,94874.03
2022-10-01T21:35:55.121Z,94899.09
2022-10-01T21:38:05.973Z,94934.44
2022-10-01T21:40:17.187Z,94974.25
2022-10-01T21:42:17.874Z,94993.31
2022-10-01T21:44:54.453Z,94996.47
2022-10-01T21:47:02.057Z,94972.28
2022-10-01T21:49:09.714Z,94981.28
2022-10-01T21:51:18.063Z,94990.25
2022-10-01T21:53:31.200Z,94990.94
2022-10-01T21:56:00.697Z,94983.78
2022-10-01T21:58:14.693Z,94988.00
2022-10-01T22:00:21.198Z,94981.44
2022-10-01T22:02:34.767Z,94979.44
2022-10-01T22:04:40.293Z,94982.88
2022-10-01T22:06:45.713Z,94979.06
2022-10-01T22:08:55.196Z,94972.72
2022-10-01T22:10:58.029Z,94983.84
2022-10-01T22:13:00.436Z,94997.97
2022-10-01T22:15:00.354Z,95001.75
2022-10-01T22:17:03.567Z,94983.66
2022-10-01T22:19:08.235Z,94981.94
2022-10-01T22:21:10.829Z,94984.78
2022-10-01T22:23:13.458Z,94984.75
2022-10-01T22:25:15.000Z,94986.44
2022-10-01T22:27:18.990Z,94982.28
2022-10-01T22:29:21.722Z,94975.00
2022-10-01T22:31:25.901Z,94978.00
2022-10-01T22:33:29.052Z,94967.22
2022-10-01T22:35:32.280Z,94960.06
2022-10-01T22:37:34.674Z,94963.94
2022-10-01T22:39:38.362Z,94973.75
2022-10-01T22:41:42.579Z,94982.41
2022-10-01T22:43:42.801Z,94971.09
2022-10-01T22:45:53.646Z,94965.66
2022-10-01T22:48:12.826Z,94963.00
2022-10-01T22:50:33.242Z,94974.72
2022-10-01T22:52:39.278Z,94978.59
2022-10-01T22:54:48.745Z,94961.34
2022-10-01T22:56:57.426Z,94949.53
2022-10-01T22:59:08.834Z,94953.84
2022-10-01T23:01:16.746Z,94958.81
2022-10-01T23:03:24.907Z,94960.50
2022-10-01T23:05:41.907Z,94958.03
2022-10-01T23:07:49.401Z,94946.25
2022-10-01T23:09:56.351Z,94958.22
2022-10-01T23:12:02.252Z,94967.34
2022-10-01T23:14:08.200Z,94966.84
2022-10-01T23:16:16.743Z,94977.47
2022-10-01T23:18:29.207Z,94967.56
2022-10-01T23:20:31.419Z,94962.91
2022-10-01T23:22:42.671Z,94963.59
2022-10-01T23:24:58.640Z,94977.66
2022-10-01T23:27:09.514Z,94978.19
2022-10-01T23:29:23.926Z,94986.81
2022-10-01T23:31:32.723Z,94971.78
2022-10-01T23:33:50.244Z,94976.03
2022-10-01T23:35:55.857Z,94974.06
2022-10-01T23:38:12.370Z,94968.91
2022-10-01T23:40:14.240Z,94972.56
2022-10-01T23:42:27.081Z,94993.13
2022-10-01T23:44:37.534Z,94992.63
2022-10-01T23:46:37.836Z,94995.09
2022-10-01T23:48:42.202Z,94991.44
2022-10-01T23:50:42.654Z,94990.81
2022-10-01T23:52:46.663Z,94989.31
2022-10-01T23:54:51.116Z,94985.16
2022-10-01T23:56:54.283Z,94979.53
2022-10-01T23:58:58.538Z,94977.72
